createdAt,value
2019-02-26T00:00:44.949Z,99.90
2019-02-26T00:03:11.807Z,99.90
2019-02-26T00:05:40.339Z,99.90
2019-02-26T00:08:08.903Z,99.90
2019-02-26T00:10:39.127Z,99.90
2019-02-26T00:13:07.773Z,99.90
2019-02-26T00:15:38.576Z,99.90
2019-02-26T00:18:09.483Z,99.90
2019-02-26T00:20:39.075Z,99.90
2019-02-26T00:23:07.039Z,99.90
2019-02-26T00:25:35.604Z,99.90
2019-02-26T00:28:04.139Z,99.90
2019-02-26T00:30:33.404Z,99.90
2019-02-26T00:33:05.190Z,99.90
2019-02-26T00:35:33.198Z,99.90
2019-02-26T00:38:01.744Z,99.90
2019-02-26T00:40:32.081Z,99.90
2019-02-26T00:43:02.559Z,99.90
2019-02-26T00:45:33.568Z,99.90
2019-02-26T00:48:01.127Z,99.90
2019-02-26T00:50:30.286Z,99.90
2019-02-26T00:53:01.573Z,99.90
2019-02-26T00:55:32.005Z,99.90
2019-02-26T00:58:01.079Z,99.90
2019-02-26T01:00:31.289Z,99.90
2019-02-26T01:03:01.437Z,99.90
2019-02-26T01:05:31.146Z,99.90
2019-02-26T01:07:59.745Z,99.90
2019-02-26T01:10:28.230Z,99.90
2019-02-26T01:12:58.581Z,99.90
2019-02-26T01:15:26.971Z,99.90
2019-02-26T01:17:57.159Z,99.90
2019-02-26T01:20:27.481Z,99.90
2019-02-26T01:22:55.902Z,99.90
2019-02-26T01:25:24.467Z,99.90
2019-02-26T01:27:54.082Z,99.90
2019-02-26T01:30:24.358Z,99.90
2019-02-26T01:32:53.641Z,99.90
2019-02-26T01:35:22.271Z,99.90
2019-02-26T01:37:51.470Z,99.90
2019-02-26T01:40:23.566Z,99.90
2019-02-26T01:42:52.899Z,99.90
2019-02-26T01:45:22.348Z,99.90
2019-02-26T01:47:52.820Z,99.90
2019-02-26T01:50:21.402Z,99.90
2019-02-26T01:52:51.709Z,99.90
2019-02-26T01:55:20.768Z,99.90
2019-02-26T01:57:50.346Z,99.90
2019-02-26T02:00:19.451Z,99.90
2019-02-26T02:02:48.118Z,99.90
2019-02-26T02:05:16.747Z,99.90
2019-02-26T02:07:47.224Z,99.90
2019-02-26T02:10:16.369Z,99.90
2019-02-26T02:12:44.830Z,99.90
2019-02-26T02:15:17.932Z,99.90
2019-02-26T02:17:45.644Z,99.90
2019-02-26T02:20:19.402Z,99.90
2019-02-26T02:22:46.457Z,99.90
2019-02-26T02:25:15.133Z,99.90
2019-02-26T02:27:47.607Z,99.90
2019-02-26T02:30:23.240Z,99.90
2019-02-26T02:32:53.736Z,99.90
2019-02-26T02:35:19.429Z,99.90
2019-02-26T02:37:50.787Z,99.90
2019-02-26T02:40:18.551Z,99.90
2019-02-26T02:42:49.179Z,99.90
2019-02-26T02:45:20.784Z,99.90
2019-02-26T02:47:47.531Z,99.90
2019-02-26T02:50:18.377Z,99.90
2019-02-26T02:52:46.416Z,99.90
2019-02-26T02:55:17.222Z,99.90
2019-02-26T02:57:48.703Z,99.90
2019-02-26T03:00:16.755Z,99.90
2019-02-26T03:02:46.507Z,99.90
2019-02-26T03:05:15.562Z,99.90
2019-02-26T03:07:46.051Z,99.90
2019-02-26T03:10:15.350Z,99.90
2019-02-26T03:12:47.852Z,99.90
2019-02-26T03:15:16.008Z,99.90
2019-02-26T03:17:44.699Z,99.90
2019-02-26T03:20:14.483Z,99.90
2019-02-26T03:22:48.754Z,99.90
2019-02-26T03:25:17.396Z,99.90
2019-02-26T03:27:45.047Z,99.90
2019-02-26T03:30:27.453Z,99.90
2019-02-26T03:32:57.643Z,99.90
2019-02-26T03:35:23.224Z,99.90
2019-02-26T03:37:54.299Z,99.90
2019-02-26T03:40:24.194Z,99.90
2019-02-26T03:42:51.759Z,99.90
2019-02-26T03:45:24.776Z,99.90
2019-02-26T03:47:50.551Z,99.90
2019-02-26T03:50:19.543Z,99.90
2019-02-26T03:52:48.467Z,99.90
2019-02-26T03:55:18.846Z,99.90
2019-02-26T03:57:49.948Z,99.90
2019-02-26T04:00:20.323Z,99.90
2019-02-26T04:02:51.710Z,99.90
2019-02-26T04:05:19.496Z,99.90
2019-02-26T04:07:52.223Z,99.90
2019-02-26T04:10:19.178Z,99.90
2019-02-26T04:12:48.697Z,99.90
2019-02-26T04:15:24.335Z,99.90
2019-02-26T04:17:50.890Z,99.90
2019-02-26T04:20:19.378Z,99.90
2019-02-26T04:22:49.912Z,99.90
2019-02-26T04:25:28.354Z,99.90
2019-02-26T04:28:12.335Z,99.90
2019-02-26T04:30:47.827Z,99.90
2019-02-26T04:33:46.219Z,99.90
2019-02-26T04:36:23.410Z,99.90
2019-02-26T04:39:14.369Z,99.90
2019-02-26T04:42:12.042Z,99.90
2019-02-26T04:44:55.175Z,99.90
2019-02-26T04:47:27.427Z,99.90
2019-02-26T04:49:57.222Z,99.90
2019-02-26T04:52:26.914Z,99.90
2019-02-26T04:54:55.619Z,99.90
2019-02-26T04:57:24.182Z,99.90
2019-02-26T04:59:52.715Z,99.90
2019-02-26T05:02:21.282Z,99.90
2019-02-26T05:04:49.828Z,99.90
2019-02-26T05:07:19.380Z,99.90
2019-02-26T05:09:50.026Z,99.90
2019-02-26T05:12:18.212Z,99.90
2019-02-26T05:14:46.747Z,99.90
2019-02-26T05:17:15.311Z,99.90
2019-02-26T05:19:48.262Z,99.90
2019-02-26T05:22:14.070Z,99.90
2019-02-26T05:24:46.635Z,99.90
2019-02-26T05:27:19.752Z,99.90
2019-02-26T05:29:49.054Z,99.90
2019-02-26T05:32:17.575Z,99.90
2019-02-26T05:34:50.174Z,99.90
2019-02-26T05:37:16.326Z,99.90
2019-02-26T05:39:46.875Z,99.90
2019-02-26T05:42:15.483Z,99.90
2019-02-26T05:44:44.030Z,99.90
2019-02-26T05:47:13.180Z,99.90
2019-02-26T05:49:43.795Z,99.90
2019-02-26T05:52:12.997Z,99.90
2019-02-26T05:54:41.521Z,99.90
2019-02-26T05:57:25.485Z,99.90
2019-02-26T05:59:41.963Z,99.90
2019-02-26T06:02:13.183Z,99.90
2019-02-26T06:04:43.895Z,99.90
2019-02-26T06:07:11.320Z,99.90
2019-02-26T06:09:39.796Z,99.90
2019-02-26T06:12:08.382Z,99.90
2019-02-26T06:14:39.163Z,99.90
2019-02-26T06:17:07.791Z,99.90
2019-02-26T06:19:42.372Z,99.90
2019-02-26T06:22:14.508Z,99.90
2019-02-26T06:24:41.222Z,99.90
2019-02-26T06:27:13.096Z,99.90
2019-02-26T06:29:40.114Z,99.90
2019-02-26T06:32:13.697Z,99.90
2019-02-26T06:34:42.230Z,99.90
2019-02-26T06:37:18.099Z,99.90
2019-02-26T06:39:50.596Z,99.90
2019-02-26T06:42:17.466Z,99.90
2019-02-26T06:44:47.193Z,99.90
2019-02-26T06:47:16.310Z,99.90
2019-02-26T06:49:45.717Z,99.90
2019-02-26T06:52:16.277Z,99.90
2019-02-26T06:54:47.982Z,99.90
2019-02-26T06:57:15.474Z,99.90
2019-02-26T06:59:43.976Z,99.90
2019-02-26T07:02:12.875Z,99.90
2019-02-26T07:04:41.440Z,99.90
2019-02-26T07:07:14.051Z,99.90
2019-02-26T07:09:41.948Z,99.90
2019-02-26T07:12:10.432Z,99.90
2019-02-26T07:14:39.001Z,99.90
2019-02-26T07:17:07.537Z,99.90
2019-02-26T07:19:38.001Z,99.90
2019-02-26T07:22:08.351Z,99.90
2019-02-26T07:24:38.430Z,99.90
2019-02-26T07:27:08.903Z,99.90
2019-02-26T07:29:40.021Z,99.90
2019-02-26T07:32:07.315Z,99.90
2019-02-26T07:34:35.874Z,99.90
2019-02-26T07:37:06.398Z,99.90
2019-02-26T07:39:34.558Z,99.90
2019-02-26T07:42:03.106Z,99.90
2019-02-26T07:44:31.667Z,99.90
2019-02-26T07:47:00.908Z,99.90
2019-02-26T07:49:30.490Z,99.90
2019-02-26T07:52:00.351Z,99.90
2019-02-26T07:54:29.254Z,99.90
2019-02-26T07:57:00.047Z,99.90
2019-02-26T07:59:30.464Z,99.90
2019-02-26T08:01:58.189Z,99.90
2019-02-26T08:04:26.750Z,99.90
2019-02-26T08:06:57.254Z,99.90
2019-02-26T08:09:25.470Z,99.90
2019-02-26T08:11:54.002Z,99.90
2019-02-26T08:14:23.291Z,99.90
2019-02-26T08:16:55.666Z,99.90
2019-02-26T08:19:22.939Z,99.90
2019-02-26T08:21:53.090Z,99.90
2019-02-26T08:24:24.430Z,99.90
2019-02-26T08:26:51.790Z,99.90
2019-02-26T08:29:20.538Z,99.90
2019-02-26T08:31:49.484Z,99.90
2019-02-26T08:34:18.710Z,99.90
2019-02-26T08:36:47.263Z,99.90
2019-02-26T08:39:15.915Z,99.90
2019-02-26T08:41:56.449Z,99.90
2019-02-26T08:44:25.338Z,99.90
2019-02-26T08:46:53.903Z,99.90
2019-02-26T08:49:22.621Z,99.90
2019-02-26T08:51:51.288Z,99.90
2019-02-26T08:54:21.156Z,99.90
2019-02-26T08:56:50.051Z,99.90
2019-02-26T08:59:20.160Z,99.90
2019-02-26T09:01:48.819Z,99.90
2019-02-26T09:04:19.208Z,99.90
2019-02-26T09:06:49.976Z,99.90
2019-02-26T09:09:18.070Z,99.90
2019-02-26T09:11:46.633Z,99.90
2019-02-26T09:14:16.703Z,99.90
2019-02-26T09:16:47.713Z,99.90
2019-02-26T09:19:15.803Z,99.90
2019-02-26T09:21:45.216Z,99.90
2019-02-26T09:24:14.542Z,99.90
2019-02-26T09:26:43.098Z,99.90
2019-02-26T09:29:12.719Z,99.90
2019-02-26T09:31:41.850Z,99.90
2019-02-26T09:34:10.383Z,99.90
2019-02-26T09:36:38.945Z,99.90
2019-02-26T09:39:08.727Z,99.90
2019-02-26T09:41:38.580Z,99.90
2019-02-26T09:44:09.788Z,99.90
2019-02-26T09:46:39.341Z,99.90
2019-02-26T09:49:11.923Z,99.90
2019-02-26T09:51:39.934Z,99.90
2019-02-26T09:54:10.919Z,99.90
2019-02-26T09:56:38.963Z,99.90
2019-02-26T09:59:09.646Z,99.90
2019-02-26T10:01:40.208Z,99.90
2019-02-26T10:04:08.250Z,99.90
2019-02-26T10:06:37.912Z,99.90
2019-02-26T10:09:08.963Z,99.90
2019-02-26T10:11:39.344Z,99.90
2019-02-26T10:14:08.329Z,99.90
2019-02-26T10:16:38.002Z,99.90
2019-02-26T10:19:07.920Z,99.90
2019-02-26T10:21:37.520Z,99.90
2019-02-26T10:24:06.934Z,99.90
2019-02-26T10:26:36.563Z,99.90
2019-02-26T10:29:07.922Z,99.90
2019-02-26T10:31:40.012Z,99.90
2019-02-26T10:34:10.028Z,99.90
2019-02-26T10:36:40.697Z,99.90
2019-02-26T10:39:08.303Z,99.90
2019-02-26T10:41:39.355Z,99.90
2019-02-26T10:44:07.208Z,99.90
2019-02-26T10:46:37.140Z,99.90
2019-02-26T10:49:06.023Z,99.90
2019-02-26T10:51:34.635Z,99.90
2019-02-26T10:54:05.667Z,99.90
2019-02-26T10:56:36.836Z,99.80
2019-02-26T10:59:06.704Z,99.90
2019-02-26T11:01:34.013Z,99.90
2019-02-26T11:04:04.412Z,99.90
2019-02-26T11:06:33.721Z,99.90
2019-02-26T11:09:03.015Z,99.90
2019-02-26T11:11:32.969Z,99.50
2019-02-26T11:14:02.027Z,99.70
2019-02-26T11:16:32.577Z,98.60
2019-02-26T11:19:02.416Z,98.80
2019-02-26T11:21:30.967Z,98.60
2019-02-26T11:24:00.729Z,99.00
2019-02-26T11:26:30.099Z,98.20
2019-02-26T11:28:59.927Z,98.10
2019-02-26T11:31:28.459Z,97.30
2019-02-26T11:34:00.125Z,98.20
2019-02-26T11:36:28.105Z,96.80
2019-02-26T11:39:01.232Z,94.60
2019-02-26T11:41:29.245Z,93.00
2019-02-26T11:43:57.918Z,93.40
2019-02-26T11:46:27.200Z,92.40
2019-02-26T11:48:57.433Z,92.30
2019-02-26T11:51:26.518Z,91.30
2019-02-26T11:53:55.086Z,90.60
2019-02-26T11:56:25.722Z,91.20
2019-02-26T11:58:53.834Z,89.90
2019-02-26T12:01:22.440Z,89.50
2019-02-26T12:03:51.014Z,90.10
2019-02-26T12:06:19.566Z,91.20
2019-02-26T12:08:50.056Z,90.10
2019-02-26T12:11:20.408Z,88.50
2019-02-26T12:13:50.324Z,87.50
2019-02-26T12:16:18.710Z,87.30
2019-02-26T12:18:47.279Z,85.70
2019-02-26T12:21:15.822Z,84.30
2019-02-26T12:23:46.633Z,82.80
2019-02-26T12:26:17.272Z,85.40
2019-02-26T12:28:45.022Z,86.60
2019-02-26T12:31:13.590Z,88.60
2019-02-26T12:33:42.051Z,90.30
2019-02-26T12:36:10.632Z,89.80
2019-02-26T12:38:39.162Z,90.80
2019-02-26T12:41:08.838Z,89.00
2019-02-26T12:43:42.575Z,91.10
2019-02-26T12:46:08.918Z,90.60
2019-02-26T12:48:40.496Z,90.10
2019-02-26T12:51:07.886Z,88.80
2019-02-26T12:53:40.409Z,87.60
2019-02-26T12:56:08.967Z,87.80
2019-02-26T12:58:38.167Z,85.30
2019-02-26T13:01:07.707Z,85.90
2019-02-26T13:03:39.805Z,86.30
2019-02-26T13:06:08.935Z,84.40
2019-02-26T13:08:39.652Z,83.90
2019-02-26T13:11:07.010Z,83.80
2019-02-26T13:13:35.478Z,84.70
2019-02-26T13:16:04.173Z,84.40
2019-02-26T13:18:32.718Z,84.10
2019-02-26T13:21:03.705Z,84.40
2019-02-26T13:23:31.723Z,82.30
2019-02-26T13:26:00.287Z,81.30
2019-02-26T13:28:29.739Z,81.30
2019-02-26T13:31:02.362Z,80.10
2019-02-26T13:33:36.891Z,82.70
2019-02-26T13:36:01.859Z,80.00
2019-02-26T13:38:35.282Z,80.90
2019-02-26T13:41:19.841Z,78.70
2019-02-26T13:43:30.098Z,80.20
2019-02-26T13:45:58.666Z,77.30
2019-02-26T13:48:27.329Z,74.20
2019-02-26T13:50:55.826Z,74.10
2019-02-26T13:53:24.436Z,72.20
2019-02-26T13:55:53.000Z,73.50
2019-02-26T13:58:21.546Z,72.80
2019-02-26T14:00:50.120Z,73.20
2019-02-26T14:03:18.660Z,72.40
2019-02-26T14:05:47.450Z,72.30
2019-02-26T14:08:16.015Z,71.80
2019-02-26T14:10:44.563Z,71.70
2019-02-26T14:13:13.135Z,73.90
2019-02-26T14:15:41.823Z,71.20
2019-02-26T14:18:10.387Z,72.90
2019-02-26T14:20:38.960Z,71.80
2019-02-26T14:23:07.519Z,69.80
2019-02-26T14:25:36.070Z,69.50
2019-02-26T14:28:05.737Z,70.00
2019-02-26T14:30:34.319Z,70.60
2019-02-26T14:33:03.186Z,71.20
2019-02-26T14:35:31.766Z,71.60
2019-02-26T14:38:00.305Z,70.70
2019-02-26T14:40:28.887Z,72.10
2019-02-26T14:42:57.426Z,70.20
2019-02-26T14:45:27.242Z,71.10
2019-02-26T14:47:55.786Z,69.30
2019-02-26T14:50:26.363Z,69.70
2019-02-26T14:52:55.158Z,68.50
2019-02-26T14:55:23.702Z,68.00
2019-02-26T14:57:53.562Z,66.30
2019-02-26T15:00:27.409Z,67.90
2019-02-26T15:02:56.286Z,69.00
2019-02-26T15:05:25.068Z,69.10
2019-02-26T15:07:54.279Z,70.20
2019-02-26T15:10:22.892Z,70.50
2019-02-26T15:12:52.628Z,70.50
2019-02-26T15:15:21.239Z,71.10
2019-02-26T15:17:49.890Z,71.10
2019-02-26T15:20:23.674Z,70.40
2019-02-26T15:22:53.661Z,71.30
2019-02-26T15:25:24.244Z,69.80
2019-02-26T15:27:52.824Z,69.70
2019-02-26T15:30:22.443Z,69.60
2019-02-26T15:32:51.120Z,69.50
2019-02-26T15:35:21.167Z,69.80
2019-02-26T15:37:49.702Z,70.50
2019-02-26T15:40:19.882Z,69.20
2019-02-26T15:42:52.344Z,69.10
2019-02-26T15:45:20.618Z,68.50
2019-02-26T15:47:50.038Z,69.60
2019-02-26T15:50:22.010Z,66.60
2019-02-26T15:52:53.010Z,67.50
2019-02-26T15:55:28.828Z,68.40
2019-02-26T15:57:56.331Z,69.50
2019-02-26T16:00:25.701Z,70.20
2019-02-26T16:02:58.956Z,70.70
2019-02-26T16:05:33.660Z,71.00
2019-02-26T16:08:02.314Z,71.20
2019-02-26T16:10:30.859Z,71.30
2019-02-26T16:13:05.523Z,71.10
2019-02-26T16:15:35.437Z,71.20
2019-02-26T16:18:04.033Z,72.70
2019-02-26T16:20:32.719Z,73.50
2019-02-26T16:23:01.264Z,74.20
2019-02-26T16:25:30.156Z,74.80
2019-02-26T16:27:58.702Z,75.40
2019-02-26T16:30:28.778Z,77.40
2019-02-26T16:32:57.328Z,79.30
2019-02-26T16:35:25.966Z,81.40
2019-02-26T16:37:54.807Z,83.40
2019-02-26T16:40:23.338Z,83.70
2019-02-26T16:42:51.895Z,85.30
2019-02-26T16:45:22.387Z,89.50
2019-02-26T16:47:51.036Z,90.60
2019-02-26T16:50:22.625Z,92.20
2019-02-26T16:52:51.610Z,93.50
2019-02-26T16:55:20.960Z,94.20
2019-02-26T16:57:49.535Z,95.00
2019-02-26T17:00:23.206Z,96.30
2019-02-26T17:02:51.882Z,98.30
2019-02-26T17:05:20.426Z,98.00
2019-02-26T17:07:49.093Z,97.40
2019-02-26T17:10:23.506Z,97.50
2019-02-26T17:12:53.846Z,98.00
2019-02-26T17:15:36.790Z,98.50
2019-02-26T17:18:09.300Z,99.20
2019-02-26T17:20:36.718Z,99.10
2019-02-26T17:23:05.706Z,97.70
2019-02-26T17:25:34.250Z,98.50
2019-02-26T17:28:02.787Z,99.70
2019-02-26T17:30:31.427Z,99.90
2019-02-26T17:33:00.030Z,99.90
2019-02-26T17:35:29.665Z,99.80
2019-02-26T17:37:58.290Z,99.90
2019-02-26T17:40:28.469Z,99.90
2019-02-26T17:42:57.306Z,99.90
2019-02-26T17:45:37.227Z,99.90
2019-02-26T17:48:07.194Z,99.90
2019-02-26T17:50:39.994Z,99.90
2019-02-26T17:53:10.175Z,99.90
2019-02-26T17:55:38.738Z,99.90
2019-02-26T17:58:09.748Z,99.90
2019-02-26T18:00:39.341Z,99.90
2019-02-26T18:03:07.880Z,99.90
2019-02-26T18:05:40.532Z,99.90
2019-02-26T18:08:06.713Z,99.90
2019-02-26T18:10:36.660Z,99.90
2019-02-26T18:13:05.453Z,99.90
2019-02-26T18:15:34.087Z,99.90
2019-02-26T18:18:02.622Z,99.90
2019-02-26T18:20:31.263Z,99.90
2019-02-26T18:23:00.762Z,99.90
2019-02-26T18:25:29.665Z,99.90
2019-02-26T18:27:58.122Z,99.90
2019-02-26T18:30:28.490Z,99.90
2019-02-26T18:32:58.947Z,99.90
2019-02-26T18:35:27.319Z,99.90
2019-02-26T18:37:55.845Z,99.90
2019-02-26T18:40:28.018Z,99.90
2019-02-26T18:42:54.727Z,99.90
2019-02-26T18:45:28.718Z,99.90
2019-02-26T18:47:57.611Z,99.90
2019-02-26T18:50:29.352Z,99.90
2019-02-26T18:52:58.481Z,99.90
2019-02-26T18:55:29.411Z,99.90
2019-02-26T18:57:58.035Z,99.90
2019-02-26T19:00:30.110Z,99.90
2019-02-26T19:02:58.787Z,99.90
2019-02-26T19:05:27.438Z,99.90
2019-02-26T19:07:55.965Z,99.90
2019-02-26T19:10:24.610Z,99.90
2019-02-26T19:12:53.090Z,99.90
2019-02-26T19:15:23.623Z,99.90
2019-02-26T19:17:54.029Z,99.90
2019-02-26T19:20:31.143Z,99.90
2019-02-26T19:23:01.935Z,99.90
2019-02-26T19:25:30.131Z,99.90
2019-02-26T19:27:58.706Z,99.90
2019-02-26T19:30:27.383Z,99.90
2019-02-26T19:32:56.002Z,99.90
2019-02-26T19:35:24.538Z,99.90
2019-02-26T19:38:03.633Z,99.90
2019-02-26T19:40:46.731Z,99.90
2019-02-26T19:43:15.314Z,99.90
2019-02-26T19:45:44.810Z,99.90
2019-02-26T19:48:13.478Z,99.90
2019-02-26T19:50:45.436Z,99.90
2019-02-26T19:53:12.250Z,99.90
2019-02-26T19:55:43.574Z,99.90
2019-02-26T19:58:12.177Z,99.90
2019-02-26T20:00:40.761Z,99.90
2019-02-26T20:03:09.602Z,99.90
2019-02-26T20:05:38.191Z,99.90
2019-02-26T20:08:06.935Z,99.90
2019-02-26T20:10:35.541Z,99.90
2019-02-26T20:13:04.348Z,99.90
2019-02-26T20:15:33.366Z,99.90
2019-02-26T20:18:01.978Z,99.90
2019-02-26T20:20:30.631Z,99.90
2019-02-26T20:22:59.246Z,99.90
2019-02-26T20:25:27.774Z,99.90
2019-02-26T20:27:59.253Z,99.90
2019-02-26T20:30:26.561Z,99.90
2019-02-26T20:32:55.164Z,99.90
2019-02-26T20:35:23.763Z,99.90
2019-02-26T20:37:52.295Z,99.90
2019-02-26T20:40:24.974Z,99.90
2019-02-26T20:42:53.507Z,99.90
2019-02-26T20:45:22.861Z,99.90
2019-02-26T20:47:51.465Z,99.90
2019-02-26T20:50:21.335Z,99.90
2019-02-26T20:52:50.419Z,99.90
2019-02-26T20:55:25.116Z,99.90
2019-02-26T20:57:55.494Z,99.90
2019-02-26T21:00:25.282Z,99.90
2019-02-26T21:02:54.622Z,99.90
2019-02-26T21:05:24.987Z,99.90
2019-02-26T21:07:57.918Z,99.90
2019-02-26T21:10:24.123Z,99.90
2019-02-26T21:12:52.723Z,99.90
2019-02-26T21:15:25.269Z,99.90
2019-02-26T21:17:57.746Z,99.90
2019-02-26T21:20:24.181Z,99.90
2019-02-26T21:22:54.915Z,99.90
2019-02-26T21:25:23.027Z,99.90
2019-02-26T21:27:53.406Z,99.90
2019-02-26T21:30:25.331Z,99.90
2019-02-26T21:32:57.766Z,99.90
2019-02-26T21:35:24.082Z,99.90
2019-02-26T21:37:52.618Z,99.90
2019-02-26T21:40:21.249Z,99.90
2019-02-26T21:42:49.703Z,99.90
2019-02-26T21:45:18.717Z,99.90
2019-02-26T21:47:47.419Z,99.90
2019-02-26T21:50:16.878Z,99.90
2019-02-26T21:52:59.291Z,99.90
2019-02-26T21:55:16.282Z,99.90
2019-02-26T21:57:45.122Z,99.90
2019-02-26T22:00:20.382Z,99.90
2019-02-26T22:02:51.964Z,99.90
2019-02-26T22:05:19.602Z,99.90
2019-02-26T22:07:52.113Z,99.90
2019-02-26T22:10:22.022Z,99.90
2019-02-26T22:12:50.587Z,99.90
2019-02-26T22:15:19.479Z,99.90
2019-02-26T22:17:48.047Z,99.90
2019-02-26T22:20:26.648Z,99.90
2019-02-26T22:22:48.632Z,99.90
2019-02-26T22:25:17.995Z,99.90
2019-02-26T22:27:46.640Z,99.90
2019-02-26T22:30:22.115Z,99.90
2019-02-26T22:32:49.583Z,99.90
2019-02-26T22:35:18.122Z,99.90
2019-02-26T22:37:46.685Z,99.90
2019-02-26T22:40:15.669Z,99.90
2019-02-26T22:42:44.229Z,99.90
2019-02-26T22:45:13.906Z,99.90
2019-02-26T22:47:44.048Z,99.90
2019-02-26T22:50:14.496Z,99.90
2019-02-26T22:52:43.298Z,99.90
2019-02-26T22:55:16.521Z,99.90
2019-02-26T22:57:44.254Z,99.90
2019-02-26T23:00:54.967Z,99.90
2019-02-26T23:03:23.965Z,99.90
2019-02-26T23:05:52.503Z,99.90
2019-02-26T23:08:21.142Z,99.90
2019-02-26T23:10:51.355Z,99.90
2019-02-26T23:13:20.081Z,99.90
2019-02-26T23:15:49.362Z,99.90
2019-02-26T23:18:18.262Z,99.90
2019-02-26T23:20:46.943Z,99.90
2019-02-26T23:23:15.643Z,99.90
2019-02-26T23:25:44.246Z,99.90
2019-02-26T23:28:12.801Z,99.90
2019-02-26T23:30:41.638Z,99.90
2019-02-26T23:33:10.347Z,99.90
2019-02-26T23:35:38.889Z,99.90
2019-02-26T23:38:08.384Z,99.90
2019-02-26T23:40:37.831Z,99.90
2019-02-26T23:43:06.878Z,99.90
2019-02-26T23:45:35.778Z,99.90
2019-02-26T23:48:07.844Z,99.90
2019-02-26T23:50:35.562Z,99.90
2019-02-26T23:53:04.559Z,99.90
2019-02-26T23:55:33.195Z,99.90
2019-02-26T23:58:01.730Z,99.90
